createdAt,value
2022-10-04T00:05:01.258Z,7.32
2022-10-04T00:15:02.493Z,7.40
2022-10-04T00:25:03.828Z,7.30
2022-10-04T00:35:05.131Z,7.12
2022-10-04T00:45:06.445Z,7.08
2022-10-04T00:55:07.792Z,7.13
2022-10-04T01:05:10.750Z,7.14
2022-10-04T01:15:12.060Z,7.13
2022-10-04T01:25:13.355Z,7.07
2022-10-04T01:35:14.670Z,7.04
2022-10-04T01:45:15.972Z,7.02
2022-10-04T01:55:17.301Z,7.03
2022-10-04T02:05:18.587Z,6.89
2022-10-04T02:15:20.248Z,7.01
2022-10-04T02:25:21.613Z,7.01
2022-10-04T02:35:22.910Z,7.11
2022-10-04T02:45:24.238Z,7.09
2022-10-04T02:55:27.872Z,6.97
2022-10-04T03:05:29.182Z,7.00
2022-10-04T03:15:30.478Z,6.99
2022-10-04T03:25:31.763Z,7.07
2022-10-04T03:35:33.067Z,6.90
2022-10-04T03:45:35.274Z,6.99
2022-10-04T03:55:36.689Z,6.91
2022-10-04T04:05:37.998Z,6.89
2022-10-04T04:15:43.362Z,6.84
2022-10-04T04:25:46.002Z,6.70
2022-10-04T04:35:47.379Z,6.64
2022-10-04T04:46:02.938Z,6.64
2022-10-04T04:56:12.073Z,6.46
2022-10-04T05:06:14.693Z,6.50
2022-10-04T05:16:16.053Z,6.48
2022-10-04T05:26:17.393Z,6.47
2022-10-04T05:36:18.729Z,6.56
2022-10-04T05:46:20.000Z,6.55
2022-10-04T05:56:21.365Z,6.62
2022-10-04T06:06:22.670Z,6.90
2022-10-04T06:16:24.004Z,7.17
2022-10-04T06:26:25.770Z,7.35
2022-10-04T06:36:27.168Z,7.39
2022-10-04T06:46:28.553Z,7.45
2022-10-04T06:56:29.880Z,7.44
2022-10-04T07:06:31.175Z,7.60
2022-10-04T07:16:32.492Z,7.84
2022-10-04T07:26:33.718Z,8.14
2022-10-04T07:36:34.935Z,8.21
2022-10-04T07:46:37.242Z,8.16
2022-10-04T07:56:38.564Z,8.48
2022-10-04T08:06:40.012Z,8.70
2022-10-04T08:16:41.815Z,8.67
2022-10-04T08:26:43.732Z,9.20
2022-10-04T08:36:45.738Z,9.22
2022-10-04T08:46:47.651Z,9.37
2022-10-04T08:56:49.593Z,9.73
2022-10-04T09:06:50.967Z,10.33
2022-10-04T09:16:52.276Z,10.43
2022-10-04T09:26:53.583Z,10.66
2022-10-04T09:36:55.276Z,10.87
2022-10-04T09:46:57.520Z,10.96
2022-10-04T09:56:59.401Z,10.77
2022-10-04T10:07:00.699Z,10.89
2022-10-04T10:17:02.207Z,11.56
2022-10-04T10:27:03.635Z,11.62
2022-10-04T10:37:04.969Z,12.00
2022-10-04T10:47:06.365Z,12.60
2022-10-04T10:57:07.684Z,12.67
2022-10-04T11:07:09.003Z,12.73
2022-10-04T11:17:10.395Z,12.54
2022-10-04T11:27:12.100Z,13.07
2022-10-04T11:37:13.897Z,13.33
2022-10-04T11:47:16.030Z,13.60
2022-10-04T11:57:17.338Z,13.59
2022-10-04T12:07:20.647Z,13.99
2022-10-04T12:17:21.883Z,13.98
2022-10-04T12:27:23.701Z,14.20
2022-10-04T12:37:26.008Z,14.35
2022-10-04T12:47:27.358Z,14.61
2022-10-04T12:57:28.736Z,14.70
2022-10-04T13:07:29.971Z,14.85
2022-10-04T13:17:35.703Z,14.94
2022-10-04T13:27:38.493Z,15.02
2022-10-04T13:37:39.882Z,15.26
2022-10-04T13:47:41.263Z,15.43
2022-10-04T13:57:43.162Z,15.70
2022-10-04T14:07:44.489Z,15.67
2022-10-04T14:17:46.432Z,15.58
2022-10-04T14:27:47.767Z,15.76
2022-10-04T14:37:49.355Z,15.75
2022-10-04T14:47:50.654Z,15.69
2022-10-04T14:57:51.882Z,15.87
2022-10-04T15:07:53.121Z,15.88
2022-10-04T15:17:54.435Z,15.80
2022-10-04T15:27:55.786Z,15.65
2022-10-04T15:37:57.167Z,15.43
2022-10-04T15:47:58.540Z,15.52
2022-10-04T15:58:02.753Z,15.38
2022-10-04T16:08:04.250Z,15.16
2022-10-04T16:18:05.774Z,14.77
2022-10-04T16:28:08.094Z,14.36
2022-10-04T16:38:09.461Z,13.97
2022-10-04T16:48:10.783Z,13.69
2022-10-04T16:58:12.090Z,13.46
2022-10-04T17:08:13.421Z,13.14
2022-10-04T17:18:14.736Z,12.66
2022-10-04T17:28:16.015Z,12.51
2022-10-04T17:38:18.446Z,12.20
2022-10-04T17:48:39.135Z,11.96
2022-10-04T17:58:41.236Z,11.82
2022-10-04T18:08:43.140Z,11.63
2022-10-04T18:18:45.180Z,11.47
2022-10-04T18:28:48.102Z,11.28
2022-10-04T18:38:50.054Z,11.16
2022-10-04T18:48:54.545Z,11.01
2022-10-04T18:59:14.652Z,10.92
2022-10-04T19:09:16.568Z,10.77
2022-10-04T19:19:18.256Z,10.60
2022-10-04T19:29:20.042Z,10.47
2022-10-04T19:39:21.996Z,10.42
2022-10-04T19:49:23.701Z,10.30
2022-10-04T19:59:25.031Z,10.15
2022-10-04T20:09:26.887Z,9.98
2022-10-04T20:19:28.275Z,9.93
2022-10-04T20:29:30.712Z,9.90
2022-10-04T20:39:32.035Z,9.77
2022-10-04T20:49:33.410Z,9.69
2022-10-04T20:59:34.746Z,9.60
2022-10-04T21:09:36.091Z,9.57
2022-10-04T21:19:38.900Z,9.43
2022-10-04T21:29:40.244Z,9.35
2022-10-04T21:39:41.569Z,9.24
2022-10-04T21:49:42.872Z,9.09
2022-10-04T21:59:44.193Z,9.01
2022-10-04T22:09:45.505Z,8.98
2022-10-04T22:19:46.838Z,8.85
2022-10-04T22:29:48.147Z,8.88
2022-10-04T22:39:49.517Z,8.77
2022-10-04T22:49:52.633Z,8.74
2022-10-04T22:59:53.947Z,8.73
2022-10-04T23:09:55.257Z,8.61
2022-10-04T23:19:56.690Z,8.58
2022-10-04T23:29:57.995Z,8.47
2022-10-04T23:39:59.316Z,8.39
2022-10-04T23:50:00.632Z,8.37
